NKS2554 KMCO-KBWI
Flight info
| Callsign | NKS2554 |
|---|---|
| Flight time | 1h 39m |
| Altitude | 37000 |
| Route | FATHE4 VIYAP Q87 RAYVO Q113 AARNN THHMP RAVNN8 |
| Aircraft | A320/M-SDE3FGHIRWY/LB1 |
Departure
| Time | 2026-05-07 19:05 |
|---|---|
| Airport | Orlando International Airport (KMCO) |
Arrival
| Time | 2026-05-07 20:45 |
|---|---|
| Airport | Baltimore/Washington International Thurgood Marshall Airport (KBWI) |
| Time | Latitude | Longitude | Altitude | Speed | Heading |
|---|---|---|---|---|---|
| 2026-05-07 18:18 | 28.43611 | -81.31256 | 102 ft | 0 kts | 202° |
| 2026-05-07 18:52 | 28.43623 | -81.31250 | 100 ft | 4 kts | 202° |
| 2026-05-07 18:52 | 28.43648 | -81.31238 | 100 ft | 4 kts | 202° |
| 2026-05-07 18:53 | 28.43673 | -81.31227 | 102 ft | 3 kts | 202° |
| 2026-05-07 18:53 | 28.43691 | -81.31216 | 101 ft | 4 kts | 238° |
| 2026-05-07 18:53 | 28.43692 | -81.31198 | 100 ft | 4 kts | 323° |
| 2026-05-07 18:53 | 28.43676 | -81.31185 | 99 ft | 0 kts | 326° |
| 2026-05-07 18:58 | 28.43677 | -81.31186 | 99 ft | 1 kts | 326° |
| 2026-05-07 18:58 | 28.43689 | -81.31195 | 101 ft | 2 kts | 326° |
| 2026-05-07 18:58 | 28.43703 | -81.31206 | 99 ft | 4 kts | 326° |
| 2026-05-07 18:58 | 28.43735 | -81.31230 | 101 ft | 7 kts | 325° |
| 2026-05-07 18:59 | 28.43772 | -81.31278 | 100 ft | 9 kts | 297° |
| 2026-05-07 18:59 | 28.43797 | -81.31356 | 101 ft | 12 kts | 288° |
| 2026-05-07 18:59 | 28.43824 | -81.31451 | 101 ft | 14 kts | 287° |
| 2026-05-07 18:59 | 28.43842 | -81.31561 | 101 ft | 15 kts | 277° |
| 2026-05-07 19:00 | 28.43849 | -81.31679 | 105 ft | 15 kts | 270° |
| 2026-05-07 19:00 | 28.43850 | -81.31797 | 107 ft | 14 kts | 277° |
| 2026-05-07 19:00 | 28.43926 | -81.31852 | 109 ft | 14 kts | 347° |
| 2026-05-07 19:00 | 28.44020 | -81.31885 | 110 ft | 15 kts | 342° |
| 2026-05-07 19:01 | 28.44130 | -81.31900 | 108 ft | 18 kts | 359° |
| 2026-05-07 19:01 | 28.44264 | -81.31902 | 98 ft | 20 kts | 359° |
| 2026-05-07 19:01 | 28.44410 | -81.31903 | 107 ft | 22 kts | 360° |
| 2026-05-07 19:01 | 28.44577 | -81.31905 | 102 ft | 24 kts | 360° |
| 2026-05-07 19:02 | 28.44710 | -81.31906 | 101 ft | 19 kts | 359° |
| 2026-05-07 19:02 | 28.44799 | -81.31915 | 103 ft | 9 kts | 334° |
| 2026-05-07 19:02 | 28.44824 | -81.31985 | 102 ft | 12 kts | 273° |
| 2026-05-07 19:02 | 28.44825 | -81.32090 | 100 ft | 14 kts | 269° |
| 2026-05-07 19:03 | 28.44824 | -81.32127 | 100 ft | 0 kts | 269° |
| 2026-05-07 19:03 | 28.44824 | -81.32129 | 100 ft | 1 kts | 269° |
| 2026-05-07 19:03 | 28.44823 | -81.32150 | 100 ft | 4 kts | 267° |
| 2026-05-07 19:03 | 28.44823 | -81.32189 | 101 ft | 6 kts | 267° |
| 2026-05-07 19:04 | 28.44802 | -81.32226 | 101 ft | 6 kts | 200° |
| 2026-05-07 19:04 | 28.44763 | -81.32230 | 102 ft | 0 kts | 179° |
| 2026-05-07 19:04 | 28.44736 | -81.32230 | 102 ft | 18 kts | 179° |
| 2026-05-07 19:05 | 28.44362 | -81.32225 | 106 ft | 87 kts | 179° |
| 2026-05-07 19:05 | 28.43574 | -81.32217 | 104 ft | 138 kts | 179° |
| 2026-05-07 19:05 | 28.42474 | -81.32205 | 181 ft | 172 kts | 179° |
| 2026-05-07 19:05 | 28.41286 | -81.32167 | 783 ft | 170 kts | 179° |
| 2026-05-07 19:06 | 28.40116 | -81.32129 | 1460 ft | 168 kts | 187° |
| 2026-05-07 19:06 | 28.37848 | -81.33386 | 2037 ft | 200 kts | 212° |
| 2026-05-07 19:06 | 28.36561 | -81.34174 | 2389 ft | 220 kts | 210° |
| 2026-05-07 19:07 | 28.35162 | -81.35043 | 2884 ft | 238 kts | 216° |
| 2026-05-07 19:07 | 28.34023 | -81.36454 | 3470 ft | 250 kts | 244° |
| 2026-05-07 19:07 | 28.33692 | -81.38395 | 4355 ft | 256 kts | 274° |
| 2026-05-07 19:07 | 28.34281 | -81.40313 | 5222 ft | 266 kts | 303° |
| 2026-05-07 19:08 | 28.35732 | -81.41638 | 6056 ft | 277 kts | 336° |
| 2026-05-07 19:08 | 28.37656 | -81.41882 | 6885 ft | 286 kts | 5° |
| 2026-05-07 19:08 | 28.39615 | -81.41405 | 7679 ft | 290 kts | 11° |
| 2026-05-07 19:08 | 28.41583 | -81.40817 | 8447 ft | 295 kts | 12° |
| 2026-05-07 19:09 | 28.43579 | -81.40187 | 9204 ft | 300 kts | 12° |
| 2026-05-07 19:09 | 28.45605 | -81.39557 | 9951 ft | 304 kts | 12° |
| 2026-05-07 19:09 | 28.47666 | -81.38934 | 10610 ft | 311 kts | 11° |
| 2026-05-07 19:09 | 28.49824 | -81.38297 | 10924 ft | 329 kts | 11° |
| 2026-05-07 19:10 | 28.52107 | -81.37644 | 11214 ft | 348 kts | 10° |
| 2026-05-07 19:10 | 28.54507 | -81.36982 | 11672 ft | 359 kts | 10° |
| 2026-05-07 19:10 | 28.56950 | -81.36326 | 12312 ft | 363 kts | 9° |
| 2026-05-07 19:10 | 28.59427 | -81.35665 | 12978 ft | 367 kts | 9° |
| 2026-05-07 19:11 | 28.61930 | -81.34998 | 13667 ft | 371 kts | 9° |
| 2026-05-07 19:11 | 28.64450 | -81.34319 | 14261 ft | 376 kts | 9° |
| 2026-05-07 19:11 | 28.67005 | -81.33612 | 14866 ft | 379 kts | 9° |
| 2026-05-07 19:11 | 28.69575 | -81.32890 | 15523 ft | 381 kts | 9° |
| 2026-05-07 19:12 | 28.72153 | -81.32164 | 16168 ft | 384 kts | 9° |
| 2026-05-07 19:12 | 28.74721 | -81.31439 | 16814 ft | 386 kts | 9° |
| 2026-05-07 19:12 | 28.77332 | -81.30703 | 17475 ft | 388 kts | 8° |
| 2026-05-07 19:12 | 28.79958 | -81.29969 | 18144 ft | 390 kts | 8° |
| 2026-05-07 19:13 | 28.82601 | -81.29258 | 18736 ft | 390 kts | 5° |
| 2026-05-07 19:13 | 28.85288 | -81.28972 | 19262 ft | 386 kts | 353° |
| 2026-05-07 19:13 | 28.87961 | -81.29172 | 19803 ft | 387 kts | 349° |
| 2026-05-07 19:13 | 28.90658 | -81.29417 | 20349 ft | 390 kts | 349° |
| 2026-05-07 19:14 | 28.93378 | -81.29654 | 20886 ft | 394 kts | 349° |
| 2026-05-07 19:14 | 28.96126 | -81.29885 | 21415 ft | 398 kts | 349° |
| 2026-05-07 19:14 | 28.98900 | -81.30116 | 21958 ft | 402 kts | 349° |
| 2026-05-07 19:14 | 29.01698 | -81.30371 | 22493 ft | 404 kts | 348° |
| 2026-05-07 19:15 | 29.04510 | -81.30668 | 23009 ft | 408 kts | 348° |
| 2026-05-07 19:15 | 29.07345 | -81.30993 | 23529 ft | 411 kts | 347° |
| 2026-05-07 19:15 | 29.10198 | -81.31330 | 23971 ft | 414 kts | 347° |
| 2026-05-07 19:15 | 29.13081 | -81.31627 | 24413 ft | 418 kts | 348° |
| 2026-05-07 19:16 | 29.15998 | -81.31846 | 24875 ft | 422 kts | 350° |
| 2026-05-07 19:16 | 29.18944 | -81.32011 | 25327 ft | 425 kts | 350° |
| 2026-05-07 19:16 | 29.21912 | -81.32152 | 25774 ft | 429 kts | 351° |
| 2026-05-07 19:16 | 29.24904 | -81.32292 | 26226 ft | 431 kts | 351° |
| 2026-05-07 19:17 | 29.27911 | -81.32443 | 26680 ft | 434 kts | 349° |
| 2026-05-07 19:17 | 29.30938 | -81.32611 | 27118 ft | 437 kts | 349° |
| 2026-05-07 19:17 | 29.33982 | -81.32792 | 27572 ft | 439 kts | 349° |
| 2026-05-07 19:17 | 29.37047 | -81.32982 | 27996 ft | 442 kts | 349° |
| 2026-05-07 19:18 | 29.40123 | -81.33175 | 28417 ft | 445 kts | 349° |
| 2026-05-07 19:18 | 29.43228 | -81.33368 | 28820 ft | 448 kts | 349° |
| 2026-05-07 19:18 | 29.46351 | -81.33561 | 29215 ft | 451 kts | 349° |
| 2026-05-07 19:18 | 29.49492 | -81.33751 | 29594 ft | 454 kts | 349° |
| 2026-05-07 19:19 | 29.52654 | -81.33943 | 29987 ft | 456 kts | 349° |
| 2026-05-07 19:19 | 29.55833 | -81.34136 | 30323 ft | 459 kts | 348° |
| 2026-05-07 19:19 | 29.59022 | -81.34327 | 30721 ft | 459 kts | 348° |
| 2026-05-07 19:19 | 29.62207 | -81.34512 | 31191 ft | 457 kts | 348° |
| 2026-05-07 19:20 | 29.65375 | -81.34696 | 31672 ft | 456 kts | 348° |
| 2026-05-07 19:20 | 29.68539 | -81.34876 | 32156 ft | 454 kts | 349° |
| 2026-05-07 19:20 | 29.71683 | -81.35054 | 32637 ft | 452 kts | 348° |
| 2026-05-07 19:20 | 29.74820 | -81.35233 | 33133 ft | 450 kts | 348° |
| 2026-05-07 19:21 | 29.77946 | -81.35413 | 33623 ft | 449 kts | 348° |
| 2026-05-07 19:21 | 29.81060 | -81.35592 | 34104 ft | 447 kts | 348° |
| 2026-05-07 19:21 | 29.84164 | -81.35767 | 34565 ft | 446 kts | 348° |
| 2026-05-07 19:21 | 29.87253 | -81.35939 | 35025 ft | 443 kts | 348° |
| 2026-05-07 19:22 | 29.90324 | -81.36111 | 35473 ft | 441 kts | 348° |
| 2026-05-07 19:22 | 29.93378 | -81.36284 | 35907 ft | 439 kts | 348° |
| 2026-05-07 19:22 | 29.96422 | -81.36461 | 36305 ft | 437 kts | 348° |
| 2026-05-07 19:22 | 29.99455 | -81.36637 | 36695 ft | 436 kts | 348° |
| 2026-05-07 19:23 | 30.02481 | -81.36813 | 36965 ft | 435 kts | 348° |
| 2026-05-07 19:23 | 30.05464 | -81.36989 | 37021 ft | 437 kts | 348° |
| 2026-05-07 19:23 | 30.11547 | -81.37345 | 37065 ft | 438 kts | 348° |
| 2026-05-07 19:24 | 30.17675 | -81.37704 | 37026 ft | 438 kts | 348° |
| 2026-05-07 19:24 | 30.23728 | -81.38058 | 37026 ft | 439 kts | 348° |
| 2026-05-07 19:25 | 30.29824 | -81.38403 | 37027 ft | 439 kts | 348° |
| 2026-05-07 19:25 | 30.35925 | -81.38749 | 37029 ft | 439 kts | 348° |
| 2026-05-07 19:26 | 30.42026 | -81.39102 | 37031 ft | 439 kts | 348° |
| 2026-05-07 19:26 | 30.48124 | -81.39461 | 37032 ft | 439 kts | 348° |
| 2026-05-07 19:27 | 30.54237 | -81.39790 | 37005 ft | 439 kts | 349° |
| 2026-05-07 19:27 | 30.60346 | -81.40110 | 37006 ft | 440 kts | 349° |
| 2026-05-07 19:28 | 30.66455 | -81.40431 | 37007 ft | 440 kts | 349° |
| 2026-05-07 19:28 | 30.72568 | -81.40749 | 37023 ft | 440 kts | 349° |
| 2026-05-07 19:29 | 30.78691 | -81.41071 | 37013 ft | 441 kts | 349° |
| 2026-05-07 19:29 | 30.84818 | -81.41402 | 37008 ft | 441 kts | 349° |
| 2026-05-07 19:30 | 30.90950 | -81.41738 | 37004 ft | 441 kts | 349° |
| 2026-05-07 19:30 | 30.97079 | -81.42060 | 36978 ft | 441 kts | 349° |
| 2026-05-07 19:31 | 31.03224 | -81.42378 | 36943 ft | 442 kts | 349° |
| 2026-05-07 19:31 | 31.09375 | -81.42703 | 36927 ft | 443 kts | 349° |
| 2026-05-07 19:32 | 31.15534 | -81.43029 | 36927 ft | 443 kts | 349° |
| 2026-05-07 19:32 | 31.21695 | -81.43347 | 36961 ft | 446 kts | 352° |
| 2026-05-07 19:33 | 31.24823 | -81.43042 | 36996 ft | 457 kts | 2° |
| 2026-05-07 19:33 | 31.27928 | -81.42065 | 36974 ft | 469 kts | 13° |
| 2026-05-07 19:33 | 31.33933 | -81.38867 | 36958 ft | 475 kts | 17° |
| 2026-05-07 19:34 | 31.39933 | -81.35596 | 36953 ft | 476 kts | 17° |
| 2026-05-07 19:34 | 31.45939 | -81.32341 | 36951 ft | 476 kts | 17° |
| 2026-05-07 19:35 | 31.51953 | -81.29077 | 36980 ft | 477 kts | 17° |
| 2026-05-07 19:35 | 31.57972 | -81.25796 | 36947 ft | 477 kts | 17° |
| 2026-05-07 19:36 | 31.64006 | -81.22510 | 36943 ft | 478 kts | 17° |
| 2026-05-07 19:36 | 31.69996 | -81.19231 | 36923 ft | 478 kts | 17° |
| 2026-05-07 19:37 | 31.76033 | -81.15929 | 36920 ft | 479 kts | 17° |
| 2026-05-07 19:37 | 31.82073 | -81.12622 | 36921 ft | 479 kts | 17° |
| 2026-05-07 19:38 | 31.88121 | -81.09300 | 36911 ft | 480 kts | 17° |
| 2026-05-07 19:38 | 31.94178 | -81.05976 | 36908 ft | 480 kts | 17° |
| 2026-05-07 19:39 | 31.99257 | -81.03185 | 36908 ft | 481 kts | 17° |
| 2026-05-07 19:39 | 32.05314 | -80.99825 | 36925 ft | 482 kts | 17° |
| 2026-05-07 19:40 | 32.11378 | -80.96415 | 36896 ft | 484 kts | 17° |
| 2026-05-07 19:40 | 32.17469 | -80.92996 | 36918 ft | 485 kts | 17° |
| 2026-05-07 19:41 | 32.23573 | -80.89579 | 36926 ft | 486 kts | 17° |
| 2026-05-07 19:41 | 32.29672 | -80.86151 | 36976 ft | 485 kts | 17° |
| 2026-05-07 19:42 | 32.35728 | -80.82740 | 36935 ft | 486 kts | 16° |
| 2026-05-07 19:42 | 32.41841 | -80.79293 | 36928 ft | 487 kts | 16° |
| 2026-05-07 19:43 | 32.47963 | -80.75844 | 36927 ft | 488 kts | 16° |
| 2026-05-07 19:43 | 32.54088 | -80.72377 | 36929 ft | 488 kts | 17° |
| 2026-05-07 19:44 | 32.60225 | -80.68898 | 36926 ft | 489 kts | 15° |
| 2026-05-07 19:44 | 32.66373 | -80.65422 | 36920 ft | 490 kts | 16° |
| 2026-05-07 19:45 | 32.72531 | -80.61922 | 36901 ft | 492 kts | 16° |
| 2026-05-07 19:45 | 32.78674 | -80.58303 | 36888 ft | 493 kts | 17° |
| 2026-05-07 19:46 | 32.84802 | -80.54614 | 36902 ft | 495 kts | 17° |
| 2026-05-07 19:46 | 32.90957 | -80.50921 | 36888 ft | 495 kts | 17° |
| 2026-05-07 19:47 | 32.97123 | -80.47249 | 36889 ft | 495 kts | 17° |
| 2026-05-07 19:47 | 33.03292 | -80.43582 | 36883 ft | 496 kts | 17° |
| 2026-05-07 19:48 | 33.09463 | -80.39894 | 36907 ft | 496 kts | 17° |
| 2026-05-07 19:48 | 33.15629 | -80.36207 | 36905 ft | 496 kts | 17° |
| 2026-05-07 19:49 | 33.21798 | -80.32513 | 36897 ft | 496 kts | 17° |
| 2026-05-07 19:49 | 33.27968 | -80.28796 | 36891 ft | 496 kts | 17° |
| 2026-05-07 19:50 | 33.34134 | -80.25081 | 36909 ft | 497 kts | 17° |
| 2026-05-07 19:50 | 33.40318 | -80.21361 | 36869 ft | 498 kts | 17° |
| 2026-05-07 19:51 | 33.46515 | -80.17626 | 36861 ft | 499 kts | 17° |
| 2026-05-07 19:51 | 33.52710 | -80.13878 | 36860 ft | 499 kts | 17° |
| 2026-05-07 19:52 | 33.58904 | -80.10121 | 36893 ft | 499 kts | 16° |
| 2026-05-07 19:52 | 33.65017 | -80.06057 | 36860 ft | 513 kts | 27° |
| 2026-05-07 19:53 | 33.70538 | -80.00445 | 36856 ft | 521 kts | 33° |
| 2026-05-07 19:53 | 33.76003 | -79.94712 | 36863 ft | 522 kts | 33° |
| 2026-05-07 19:54 | 33.81443 | -79.89005 | 36903 ft | 523 kts | 32° |
| 2026-05-07 19:54 | 33.86935 | -79.83228 | 36857 ft | 526 kts | 32° |
| 2026-05-07 19:55 | 33.92446 | -79.77418 | 36828 ft | 527 kts | 33° |
| 2026-05-07 19:55 | 33.97965 | -79.71593 | 36842 ft | 528 kts | 33° |
| 2026-05-07 19:56 | 34.03487 | -79.65748 | 36861 ft | 528 kts | 33° |
| 2026-05-07 19:56 | 34.09008 | -79.59890 | 36857 ft | 530 kts | 32° |
| 2026-05-07 19:57 | 34.14551 | -79.54004 | 36845 ft | 531 kts | 32° |
| 2026-05-07 19:57 | 34.20106 | -79.48099 | 36842 ft | 533 kts | 32° |
| 2026-05-07 19:58 | 34.25668 | -79.42176 | 36823 ft | 533 kts | 33° |
| 2026-05-07 19:58 | 34.31235 | -79.36232 | 36883 ft | 534 kts | 32° |
| 2026-05-07 19:59 | 34.36807 | -79.30272 | 36860 ft | 535 kts | 32° |
| 2026-05-07 19:59 | 34.42459 | -79.24454 | 36854 ft | 526 kts | 25° |
| 2026-05-07 20:00 | 34.45530 | -79.22143 | 36846 ft | 513 kts | 15° |
| 2026-05-07 20:00 | 34.48703 | -79.20204 | 36837 ft | 511 kts | 14° |
| 2026-05-07 20:00 | 34.55070 | -79.16343 | 36872 ft | 513 kts | 14° |
| 2026-05-07 20:01 | 34.61450 | -79.12452 | 36836 ft | 514 kts | 14° |
| 2026-05-07 20:01 | 34.67794 | -79.08559 | 36832 ft | 515 kts | 15° |
| 2026-05-07 20:02 | 34.74193 | -79.04626 | 36816 ft | 515 kts | 15° |
| 2026-05-07 20:02 | 34.80593 | -79.00693 | 36863 ft | 516 kts | 14° |
| 2026-05-07 20:03 | 34.87002 | -78.96741 | 36853 ft | 516 kts | 14° |
| 2026-05-07 20:03 | 34.93412 | -78.92777 | 36847 ft | 517 kts | 14° |
| 2026-05-07 20:04 | 34.99823 | -78.88815 | 36875 ft | 517 kts | 14° |
| 2026-05-07 20:04 | 35.06237 | -78.84856 | 36864 ft | 517 kts | 14° |
| 2026-05-07 20:05 | 35.12641 | -78.80879 | 36840 ft | 517 kts | 14° |
| 2026-05-07 20:05 | 35.19049 | -78.76889 | 36856 ft | 516 kts | 14° |
| 2026-05-07 20:06 | 35.25452 | -78.72907 | 36868 ft | 517 kts | 14° |
| 2026-05-07 20:06 | 35.31862 | -78.68913 | 36859 ft | 517 kts | 14° |
| 2026-05-07 20:07 | 35.38274 | -78.64905 | 36850 ft | 517 kts | 14° |
| 2026-05-07 20:07 | 35.44679 | -78.60895 | 36872 ft | 517 kts | 14° |
| 2026-05-07 20:08 | 35.51089 | -78.56866 | 36876 ft | 517 kts | 14° |
| 2026-05-07 20:08 | 35.57496 | -78.52836 | 36877 ft | 517 kts | 14° |
| 2026-05-07 20:09 | 35.63900 | -78.48816 | 36876 ft | 517 kts | 14° |
| 2026-05-07 20:10 | 35.73516 | -78.42753 | 36872 ft | 518 kts | 14° |
| 2026-05-07 20:10 | 35.79923 | -78.38702 | 36866 ft | 518 kts | 14° |
| 2026-05-07 20:11 | 35.86301 | -78.34672 | 36908 ft | 519 kts | 14° |
| 2026-05-07 20:11 | 35.92731 | -78.30602 | 36922 ft | 520 kts | 14° |
| 2026-05-07 20:12 | 35.99176 | -78.26513 | 36940 ft | 521 kts | 14° |
| 2026-05-07 20:12 | 36.05630 | -78.22413 | 36925 ft | 522 kts | 14° |
| 2026-05-07 20:13 | 36.12094 | -78.18292 | 36914 ft | 523 kts | 14° |
| 2026-05-07 20:13 | 36.18569 | -78.14159 | 36922 ft | 524 kts | 14° |
| 2026-05-07 20:14 | 36.25050 | -78.10009 | 36906 ft | 525 kts | 14° |
| 2026-05-07 20:14 | 36.31536 | -78.05852 | 36899 ft | 525 kts | 14° |
| 2026-05-07 20:15 | 36.38031 | -78.01683 | 36905 ft | 526 kts | 14° |
| 2026-05-07 20:15 | 36.44548 | -77.97576 | 36948 ft | 525 kts | 13° |
| 2026-05-07 20:16 | 36.51091 | -77.93563 | 36912 ft | 524 kts | 13° |
| 2026-05-07 20:16 | 36.57634 | -77.89556 | 36966 ft | 525 kts | 13° |
| 2026-05-07 20:17 | 36.64174 | -77.85500 | 36967 ft | 526 kts | 13° |
| 2026-05-07 20:17 | 36.70701 | -77.81424 | 36945 ft | 525 kts | 13° |
| 2026-05-07 20:18 | 36.77242 | -77.77336 | 36919 ft | 526 kts | 13° |
| 2026-05-07 20:18 | 36.83791 | -77.73238 | 36923 ft | 527 kts | 13° |
| 2026-05-07 20:19 | 36.90348 | -77.69130 | 36949 ft | 528 kts | 13° |
| 2026-05-07 20:19 | 36.96922 | -77.65002 | 36931 ft | 529 kts | 13° |
| 2026-05-07 20:20 | 37.03505 | -77.60862 | 36653 ft | 530 kts | 13° |
| 2026-05-07 20:20 | 37.06794 | -77.58787 | 36426 ft | 530 kts | 13° |
| 2026-05-07 20:20 | 37.10085 | -77.56711 | 36178 ft | 530 kts | 13° |
| 2026-05-07 20:20 | 37.13378 | -77.54637 | 35933 ft | 530 kts | 13° |
| 2026-05-07 20:21 | 37.16673 | -77.52560 | 35676 ft | 530 kts | 13° |
| 2026-05-07 20:21 | 37.19990 | -77.50475 | 34763 ft | 535 kts | 13° |
| 2026-05-07 20:21 | 37.23270 | -77.48408 | 33794 ft | 535 kts | 13° |
| 2026-05-07 20:21 | 37.26592 | -77.46302 | 32702 ft | 534 kts | 14° |
| 2026-05-07 20:22 | 37.29891 | -77.44194 | 31697 ft | 532 kts | 13° |
| 2026-05-07 20:22 | 37.33205 | -77.42078 | 30584 ft | 537 kts | 13° |
| 2026-05-07 20:22 | 37.36564 | -77.39948 | 29326 ft | 545 kts | 14° |
| 2026-05-07 20:22 | 37.39944 | -77.37803 | 28042 ft | 544 kts | 15° |
| 2026-05-07 20:23 | 37.43312 | -77.35654 | 26919 ft | 540 kts | 15° |
| 2026-05-07 20:23 | 37.46586 | -77.33545 | 26562 ft | 514 kts | 14° |
| 2026-05-07 20:23 | 37.49776 | -77.31900 | 26086 ft | 478 kts | 3° |
| 2026-05-07 20:23 | 37.52911 | -77.30955 | 25910 ft | 455 kts | 355° |
| 2026-05-07 20:24 | 37.56029 | -77.30251 | 25662 ft | 455 kts | 355° |
| 2026-05-07 20:24 | 37.59144 | -77.29534 | 25138 ft | 453 kts | 356° |
| 2026-05-07 20:24 | 37.62229 | -77.28801 | 24576 ft | 450 kts | 356° |
| 2026-05-07 20:24 | 37.65288 | -77.28061 | 24032 ft | 446 kts | 357° |
| 2026-05-07 20:25 | 37.68327 | -77.27320 | 23474 ft | 443 kts | 357° |
| 2026-05-07 20:25 | 37.71336 | -77.26585 | 23035 ft | 439 kts | 358° |
| 2026-05-07 20:25 | 37.74330 | -77.25843 | 22929 ft | 439 kts | 358° |
| 2026-05-07 20:25 | 37.77326 | -77.25079 | 22952 ft | 439 kts | 359° |
| 2026-05-07 20:26 | 37.79306 | -77.24563 | 22947 ft | 439 kts | 359° |
| 2026-05-07 20:26 | 37.82297 | -77.23777 | 22946 ft | 439 kts | 359° |
| 2026-05-07 20:26 | 37.85287 | -77.22992 | 22949 ft | 439 kts | 359° |
| 2026-05-07 20:26 | 37.88284 | -77.22203 | 22942 ft | 440 kts | 359° |
| 2026-05-07 20:27 | 37.91287 | -77.21421 | 22936 ft | 442 kts | 359° |
| 2026-05-07 20:27 | 37.94296 | -77.20641 | 22645 ft | 440 kts | 359° |
| 2026-05-07 20:27 | 37.97270 | -77.19863 | 22032 ft | 431 kts | 359° |
| 2026-05-07 20:27 | 38.00203 | -77.19089 | 21691 ft | 430 kts | 359° |
| 2026-05-07 20:28 | 38.03131 | -77.18321 | 21331 ft | 428 kts | 360° |
| 2026-05-07 20:28 | 38.06033 | -77.17563 | 20972 ft | 424 kts | 360° |
| 2026-05-07 20:28 | 38.08914 | -77.16814 | 20476 ft | 420 kts | 0° |
| 2026-05-07 20:28 | 38.11764 | -77.16072 | 19949 ft | 415 kts | 0° |
| 2026-05-07 20:29 | 38.14581 | -77.15337 | 19437 ft | 411 kts | 1° |
| 2026-05-07 20:29 | 38.17364 | -77.14609 | 18932 ft | 406 kts | 1° |
| 2026-05-07 20:29 | 38.20117 | -77.13884 | 18445 ft | 401 kts | 2° |
| 2026-05-07 20:29 | 38.22829 | -77.13168 | 17902 ft | 396 kts | 2° |
| 2026-05-07 20:30 | 38.25513 | -77.12462 | 17446 ft | 392 kts | 2° |
| 2026-05-07 20:30 | 38.28176 | -77.11763 | 17134 ft | 390 kts | 2° |
| 2026-05-07 20:30 | 38.30819 | -77.11071 | 16707 ft | 387 kts | 2° |
| 2026-05-07 20:30 | 38.33456 | -77.10380 | 16263 ft | 385 kts | 2° |
| 2026-05-07 20:31 | 38.36013 | -77.09482 | 15831 ft | 391 kts | 13° |
| 2026-05-07 20:31 | 38.38430 | -77.07934 | 15399 ft | 399 kts | 26° |
| 2026-05-07 20:31 | 38.40713 | -77.05922 | 14956 ft | 398 kts | 28° |
| 2026-05-07 20:31 | 38.42972 | -77.03904 | 14481 ft | 395 kts | 29° |
| 2026-05-07 20:32 | 38.45220 | -77.01894 | 14033 ft | 393 kts | 29° |
| 2026-05-07 20:32 | 38.47452 | -76.99898 | 13572 ft | 391 kts | 29° |
| 2026-05-07 20:32 | 38.49667 | -76.97919 | 13109 ft | 387 kts | 29° |
| 2026-05-07 20:32 | 38.51862 | -76.95959 | 12680 ft | 383 kts | 29° |
| 2026-05-07 20:33 | 38.54036 | -76.94018 | 12241 ft | 379 kts | 29° |
| 2026-05-07 20:33 | 38.56080 | -76.91887 | 11716 ft | 380 kts | 38° |
| 2026-05-07 20:33 | 38.58002 | -76.89595 | 11031 ft | 374 kts | 38° |
| 2026-05-07 20:33 | 38.59877 | -76.87346 | 10422 ft | 366 kts | 38° |
| 2026-05-07 20:34 | 38.61677 | -76.85176 | 10268 ft | 344 kts | 38° |
| 2026-05-07 20:34 | 38.63373 | -76.83128 | 9974 ft | 330 kts | 38° |
| 2026-05-07 20:34 | 38.65013 | -76.81152 | 9755 ft | 319 kts | 37° |
| 2026-05-07 20:34 | 38.66637 | -76.79207 | 9626 ft | 320 kts | 37° |
| 2026-05-07 20:35 | 38.68265 | -76.77265 | 9440 ft | 319 kts | 37° |
| 2026-05-07 20:35 | 38.69869 | -76.75318 | 9152 ft | 318 kts | 42° |
| 2026-05-07 20:35 | 38.71211 | -76.73067 | 8848 ft | 320 kts | 56° |
| 2026-05-07 20:35 | 38.72296 | -76.70587 | 8555 ft | 318 kts | 58° |
| 2026-05-07 20:36 | 38.73366 | -76.68122 | 8259 ft | 315 kts | 57° |
| 2026-05-07 20:36 | 38.74426 | -76.65684 | 7963 ft | 311 kts | 58° |
| 2026-05-07 20:36 | 38.75471 | -76.63273 | 7677 ft | 308 kts | 58° |
| 2026-05-07 20:36 | 38.76544 | -76.60917 | 7396 ft | 304 kts | 51° |
| 2026-05-07 20:37 | 38.77948 | -76.58963 | 7109 ft | 295 kts | 34° |
| 2026-05-07 20:37 | 38.79645 | -76.57572 | 6824 ft | 286 kts | 19° |
| 2026-05-07 20:37 | 38.81493 | -76.56776 | 6546 ft | 274 kts | 7° |
| 2026-05-07 20:37 | 38.83308 | -76.56298 | 6270 ft | 260 kts | 7° |
| 2026-05-07 20:38 | 38.85041 | -76.55950 | 6009 ft | 244 kts | 358° |
| 2026-05-07 20:38 | 38.86688 | -76.56023 | 5763 ft | 231 kts | 353° |
| 2026-05-07 20:38 | 38.88256 | -76.56131 | 5530 ft | 228 kts | 353° |
| 2026-05-07 20:38 | 38.89829 | -76.56240 | 5316 ft | 224 kts | 353° |
| 2026-05-07 20:39 | 38.91387 | -76.56346 | 5128 ft | 220 kts | 354° |
| 2026-05-07 20:39 | 38.92911 | -76.56445 | 5022 ft | 219 kts | 354° |
| 2026-05-07 20:39 | 38.94412 | -76.56536 | 4909 ft | 219 kts | 354° |
| 2026-05-07 20:39 | 38.95955 | -76.56631 | 4420 ft | 227 kts | 355° |
| 2026-05-07 20:40 | 38.97552 | -76.56730 | 4036 ft | 223 kts | 355° |
| 2026-05-07 20:40 | 38.99062 | -76.56821 | 3762 ft | 218 kts | 355° |
| 2026-05-07 20:40 | 39.00575 | -76.56914 | 3501 ft | 218 kts | 355° |
| 2026-05-07 20:40 | 39.02072 | -76.57006 | 3240 ft | 211 kts | 356° |
| 2026-05-07 20:41 | 39.03503 | -76.57092 | 2990 ft | 203 kts | 356° |
| 2026-05-07 20:41 | 39.04900 | -76.57176 | 2721 ft | 200 kts | 356° |
| 2026-05-07 20:41 | 39.06279 | -76.57304 | 2524 ft | 197 kts | 347° |
| 2026-05-07 20:41 | 39.07475 | -76.57969 | 2334 ft | 179 kts | 324° |
| 2026-05-07 20:42 | 39.08441 | -76.58860 | 2128 ft | 160 kts | 323° |
| 2026-05-07 20:42 | 39.09294 | -76.59649 | 1902 ft | 144 kts | 323° |
| 2026-05-07 20:42 | 39.10093 | -76.60387 | 1693 ft | 138 kts | 323° |
| 2026-05-07 20:42 | 39.10873 | -76.61114 | 1516 ft | 138 kts | 323° |
| 2026-05-07 20:43 | 39.11656 | -76.61833 | 1369 ft | 141 kts | 325° |
| 2026-05-07 20:43 | 39.12475 | -76.62566 | 1179 ft | 144 kts | 324° |
| 2026-05-07 20:43 | 39.13289 | -76.63324 | 977 ft | 143 kts | 323° |
| 2026-05-07 20:43 | 39.14085 | -76.64076 | 753 ft | 142 kts | 324° |
| 2026-05-07 20:44 | 39.14891 | -76.64823 | 551 ft | 143 kts | 324° |
| 2026-05-07 20:44 | 39.15694 | -76.65567 | 383 ft | 141 kts | 324° |
| 2026-05-07 20:44 | 39.16494 | -76.66308 | 207 ft | 142 kts | 323° |
| 2026-05-07 20:44 | 39.17254 | -76.67014 | 150 ft | 115 kts | 324° |
| 2026-05-07 20:45 | 39.17678 | -76.67408 | 143 ft | 43 kts | 323° |
| 2026-05-07 20:45 | 39.17797 | -76.67485 | 143 ft | 12 kts | 4° |
| 2026-05-07 20:45 | 39.17829 | -76.67463 | 144 ft | 1 kts | 44° |
| 2026-05-07 20:45 | 39.17839 | -76.67448 | 144 ft | 2 kts | 49° |
| 2026-05-07 20:46 | 39.17847 | -76.67435 | 145 ft | 1 kts | 53° |
| 2026-05-07 20:46 | 39.17850 | -76.67429 | 145 ft | 0 kts | 54° |
| 2026-05-07 20:46 | 39.17852 | -76.67413 | 146 ft | 3 kts | 90° |
| 2026-05-07 20:46 | 39.17830 | -76.67373 | 148 ft | 6 kts | 137° |
| 2026-05-07 20:47 | 39.17786 | -76.67329 | 150 ft | 10 kts | 146° |
| 2026-05-07 20:47 | 39.17715 | -76.67265 | 149 ft | 13 kts | 144° |
| 2026-05-07 20:47 | 39.17623 | -76.67178 | 150 ft | 17 kts | 143° |
| 2026-05-07 20:47 | 39.17550 | -76.67110 | 151 ft | 9 kts | 143° |
| 2026-05-07 20:48 | 39.17492 | -76.67024 | 152 ft | 13 kts | 119° |
| 2026-05-07 20:48 | 39.17471 | -76.66901 | 153 ft | 15 kts | 92° |
| 2026-05-07 20:48 | 39.17459 | -76.66759 | 152 ft | 17 kts | 94° |
| 2026-05-07 20:48 | 39.17450 | -76.66606 | 153 ft | 14 kts | 94° |
| 2026-05-07 20:49 | 39.17463 | -76.66490 | 153 ft | 13 kts | 52° |
| 2026-05-07 20:49 | 39.17538 | -76.66438 | 153 ft | 12 kts | 4° |
| 2026-05-07 20:49 | 39.17597 | -76.66480 | 153 ft | 9 kts | 350° |
| 2026-05-07 20:49 | 39.17656 | -76.66449 | 154 ft | 10 kts | 33° |
| 2026-05-07 20:50 | 39.17723 | -76.66435 | 154 ft | 9 kts | 321° |
| 2026-05-07 20:50 | 39.17760 | -76.66502 | 155 ft | 10 kts | 306° |
| 2026-05-07 20:50 | 39.17818 | -76.66567 | 155 ft | 11 kts | 324° |
| 2026-05-07 20:50 | 39.17860 | -76.66607 | 155 ft | 4 kts | 327° |
| 2026-05-07 20:51 | 39.17889 | -76.66595 | 155 ft | 5 kts | 40° |
| 2026-05-07 20:51 | 39.17904 | -76.66572 | 155 ft | 4 kts | 51° |
| 2026-05-07 20:51 | 39.17916 | -76.66552 | 155 ft | 1 kts | 52° |